LXJ441 EGGW-EDNY
Flight info
| Callsign | LXJ441 |
|---|---|
| Flight time | N/A |
| Altitude | 45000 |
| Route | DET Q70 ITVIP L10 DVR UL9 KONAN UL607 KOK M150 PITES DCT TITIX N850 TRA N491 ZUE ZUE1F |
| Aircraft | GLF6/M-ICAO/LB1D1 |
Departure
| Time | N/A |
|---|---|
| Airport | London Luton Airport (EGGW) |
Arrival
| Time | 2026-04-21 15:37 |
|---|---|
| Airport | Bodensee Airport Friedrichshafen (EDNY) |
| Time | Latitude | Longitude | Altitude | Speed | Heading |
|---|---|---|---|---|---|
| 2026-04-21 15:31 | 47.56529 | 9.18551 | 4021 ft | 205 kts | 93° |
| 2026-04-21 15:31 | 47.56369 | 9.20672 | 4018 ft | 212 kts | 93° |
| 2026-04-21 15:31 | 47.56274 | 9.22824 | 3996 ft | 210 kts | 82° |
| 2026-04-21 15:32 | 47.56786 | 9.24815 | 4006 ft | 205 kts | 58° |
| 2026-04-21 15:32 | 47.57521 | 9.26613 | 4011 ft | 205 kts | 58° |
| 2026-04-21 15:32 | 47.58237 | 9.28399 | 4010 ft | 194 kts | 58° |
| 2026-04-21 15:32 | 47.58836 | 9.29919 | 4004 ft | 145 kts | 58° |
| 2026-04-21 15:33 | 47.59278 | 9.31048 | 3956 ft | 109 kts | 57° |
| 2026-04-21 15:33 | 47.59679 | 9.32058 | 4041 ft | 124 kts | 57° |
| 2026-04-21 15:33 | 47.60143 | 9.33231 | 3979 ft | 143 kts | 57° |
| 2026-04-21 15:33 | 47.60662 | 9.34552 | 3805 ft | 151 kts | 58° |
| 2026-04-21 15:34 | 47.61185 | 9.35891 | 3598 ft | 149 kts | 58° |
| 2026-04-21 15:34 | 47.61674 | 9.37148 | 3382 ft | 134 kts | 58° |
| 2026-04-21 15:34 | 47.62122 | 9.38296 | 3192 ft | 123 kts | 57° |
| 2026-04-21 15:34 | 47.62542 | 9.39373 | 3017 ft | 115 kts | 57° |
| 2026-04-21 15:35 | 47.62962 | 9.40450 | 2886 ft | 127 kts | 57° |
| 2026-04-21 15:35 | 47.63420 | 9.41620 | 2711 ft | 135 kts | 56° |
| 2026-04-21 15:35 | 47.63898 | 9.42848 | 2515 ft | 140 kts | 57° |
| 2026-04-21 15:35 | 47.64394 | 9.44115 | 2316 ft | 143 kts | 57° |
| 2026-04-21 15:36 | 47.64849 | 9.45294 | 2087 ft | 122 kts | 56° |
| 2026-04-21 15:36 | 47.65272 | 9.46345 | 1904 ft | 117 kts | 55° |
| 2026-04-21 15:36 | 47.65689 | 9.47407 | 1806 ft | 124 kts | 56° |
| 2026-04-21 15:36 | 47.66137 | 9.48582 | 1669 ft | 133 kts | 56° |
| 2026-04-21 15:37 | 47.66589 | 9.49740 | 1422 ft | 121 kts | 58° |
| 2026-04-21 15:37 | 47.66968 | 9.50699 | 1348 ft | 93 kts | 59° |
| 2026-04-21 15:37 | 47.67173 | 9.51250 | 1353 ft | 42 kts | 62° |
| 2026-04-21 15:37 | 47.67338 | 9.51671 | 1360 ft | 42 kts | 58° |
| 2026-04-21 15:38 | 47.67414 | 9.51885 | 1366 ft | 50 kts | 56° |
| 2026-04-21 15:38 | 47.67397 | 9.52121 | 1367 ft | 21 kts | 180° |
| 2026-04-21 15:38 | 47.67360 | 9.52117 | 1367 ft | 2 kts | 185° |
| 2026-04-21 15:38 | 47.67331 | 9.52107 | 1367 ft | 10 kts | 202° |
| 2026-04-21 15:39 | 47.67281 | 9.52012 | 1367 ft | 12 kts | 239° |
| 2026-04-21 15:39 | 47.67236 | 9.51898 | 1364 ft | 13 kts | 240° |
| 2026-04-21 15:39 | 47.67183 | 9.51761 | 1362 ft | 17 kts | 240° |
| 2026-04-21 15:39 | 47.67120 | 9.51594 | 1359 ft | 19 kts | 240° |
| 2026-04-21 15:40 | 47.67051 | 9.51418 | 1357 ft | 20 kts | 238° |
| 2026-04-21 15:40 | 47.67065 | 9.51311 | 1355 ft | 12 kts | 321° |
| 2026-04-21 15:40 | 47.67138 | 9.51226 | 1354 ft | 13 kts | 321° |
| 2026-04-21 15:40 | 47.67210 | 9.51139 | 1353 ft | 13 kts | 320° |
| 2026-04-21 15:41 | 47.67281 | 9.51053 | 1353 ft | 13 kts | 321° |
| 2026-04-21 15:41 | 47.67345 | 9.50980 | 1353 ft | 7 kts | 321° |
| 2026-04-21 15:41 | 47.67387 | 9.50943 | 1353 ft | 6 kts | 331° |
| 2026-04-21 15:41 | 47.67411 | 9.50927 | 1353 ft | 0 kts | 332° |
| 2026-04-21 15:51 | 47.67412 | 9.50926 | 1353 ft | 0 kts | 332° |
| 2026-04-21 15:51 | 47.67428 | 9.50914 | 1353 ft | 6 kts | 332° |
| 2026-04-21 15:51 | 47.67458 | 9.50890 | 1353 ft | 7 kts | 330° |
| 2026-04-21 15:51 | 47.67520 | 9.50839 | 1353 ft | 7 kts | 330° |
| 2026-04-21 15:52 | 47.67563 | 9.50803 | 1353 ft | 5 kts | 330° |
| 2026-04-21 15:52 | 47.67585 | 9.50788 | 1353 ft | 2 kts | 356° |
| 2026-04-21 15:52 | 47.67593 | 9.50793 | 1353 ft | 0 kts | 26° |
| 2026-04-21 15:52 | 47.67593 | 9.50792 | 1353 ft | 1 kts | 20° |
| 2026-04-21 15:53 | 47.67578 | 9.50784 | 1353 ft | 2 kts | 25° |
| 2026-04-21 15:53 | 47.67565 | 9.50774 | 1352 ft | 2 kts | 25° |
| 2026-04-21 15:53 | 47.67553 | 9.50765 | 1352 ft | 1 kts | 25° |
| 2026-04-21 15:53 | 47.67548 | 9.50761 | 1352 ft | 0 kts | 28° |